createdAt,value
2022-08-07T00:01:43.798Z,13.20
2022-08-07T00:05:34.081Z,13.10
2022-08-07T00:09:21.215Z,13.00
2022-08-07T00:13:23.480Z,12.90
2022-08-07T00:17:07.324Z,12.80
2022-08-07T00:20:51.944Z,12.80
2022-08-07T00:24:33.925Z,12.70
2022-08-07T00:28:18.341Z,12.60
2022-08-07T00:32:04.470Z,12.50
2022-08-07T00:35:49.713Z,12.50
2022-08-07T00:39:31.606Z,12.40
2022-08-07T00:44:01.747Z,12.30
2022-08-07T00:48:05.435Z,12.20
2022-08-07T00:51:17.333Z,12.10
2022-08-07T00:54:59.094Z,12.10
2022-08-07T00:58:49.722Z,12.00
2022-08-07T01:02:31.801Z,11.90
2022-08-07T01:06:13.639Z,11.80
2022-08-07T01:10:04.308Z,11.70
2022-08-07T01:13:56.042Z,11.70
2022-08-07T01:17:37.901Z,11.60
2022-08-07T01:21:25.807Z,11.60
2022-08-07T01:25:40.614Z,11.50
2022-08-07T01:29:14.045Z,11.40
2022-08-07T01:32:56.384Z,11.40
2022-08-07T01:36:40.595Z,11.30
2022-08-07T01:40:22.552Z,11.20
2022-08-07T01:44:05.652Z,11.20
2022-08-07T01:48:19.604Z,11.20
2022-08-07T01:52:03.489Z,11.10
2022-08-07T01:55:47.562Z,11.00
2022-08-07T01:59:46.350Z,10.90
2022-08-07T02:03:42.775Z,10.90
2022-08-07T02:07:44.839Z,10.90
2022-08-07T02:12:04.254Z,10.80
2022-08-07T02:15:35.190Z,10.70
2022-08-07T02:20:04.819Z,10.70
2022-08-07T02:23:20.100Z,10.60
2022-08-07T02:27:08.420Z,10.50
2022-08-07T02:30:50.099Z,10.50
2022-08-07T02:34:31.962Z,10.40
2022-08-07T02:38:16.099Z,10.40
2022-08-07T02:41:57.817Z,10.30
2022-08-07T02:45:58.788Z,10.30
2022-08-07T02:49:58.253Z,10.20
2022-08-07T02:53:41.781Z,10.20
2022-08-07T02:57:24.463Z,10.20
2022-08-07T03:01:18.739Z,10.10
2022-08-07T03:05:20.605Z,10.00
2022-08-07T03:09:04.955Z,10.00
2022-08-07T03:12:46.690Z,9.90
2022-08-07T03:16:29.431Z,9.90
2022-08-07T03:20:12.306Z,9.90
2022-08-07T03:24:21.081Z,9.80
2022-08-07T03:28:08.888Z,9.80
2022-08-07T03:31:58.777Z,9.70
2022-08-07T03:35:43.797Z,9.70
2022-08-07T03:39:46.405Z,9.60
2022-08-07T03:43:33.835Z,9.60
2022-08-07T03:47:17.812Z,9.50
2022-08-07T03:51:00.634Z,9.50
2022-08-07T03:54:54.278Z,9.50
2022-08-07T03:59:08.039Z,9.50
2022-08-07T04:02:41.304Z,9.40
2022-08-07T04:06:38.400Z,9.40
2022-08-07T04:10:20.642Z,9.40
2022-08-07T04:14:10.963Z,9.40
2022-08-07T04:18:58.618Z,9.30
2022-08-07T04:22:13.352Z,9.30
2022-08-07T04:25:58.956Z,9.20
2022-08-07T04:29:58.612Z,9.20
2022-08-07T04:33:45.165Z,9.10
2022-08-07T04:37:28.834Z,9.10
2022-08-07T04:41:18.208Z,9.10
2022-08-07T04:45:02.868Z,9.00
2022-08-07T04:49:17.572Z,9.00
2022-08-07T04:53:03.013Z,8.90
2022-08-07T04:58:13.927Z,8.90
2022-08-07T05:00:56.497Z,8.90
2022-08-07T05:04:53.406Z,8.80
2022-08-07T05:08:59.915Z,8.80
2022-08-07T05:12:52.851Z,8.80
2022-08-07T05:16:35.321Z,8.80
2022-08-07T05:20:38.220Z,8.80
2022-08-07T05:24:24.477Z,8.90
2022-08-07T05:28:20.245Z,8.90
2022-08-07T05:32:06.552Z,9.00
2022-08-07T05:35:52.402Z,9.00
2022-08-07T05:40:07.007Z,9.10
2022-08-07T05:43:50.004Z,9.10
2022-08-07T05:48:02.136Z,9.20
2022-08-07T05:51:42.234Z,9.30
2022-08-07T05:55:24.165Z,9.40
2022-08-07T05:59:25.934Z,9.50
2022-08-07T06:03:09.612Z,9.70
2022-08-07T06:06:56.721Z,9.80
2022-08-07T06:10:45.195Z,9.90
2022-08-07T06:14:28.789Z,10.10
2022-08-07T06:18:14.137Z,10.20
2022-08-07T06:22:16.310Z,10.40
2022-08-07T06:25:58.169Z,10.50
2022-08-07T06:29:39.841Z,10.70
2022-08-07T06:33:22.542Z,10.90
2022-08-07T06:37:04.539Z,11.10
2022-08-07T06:40:47.752Z,11.20
2022-08-07T06:44:34.114Z,11.40
2022-08-07T06:48:24.815Z,11.60
2022-08-07T06:52:10.294Z,11.80
2022-08-07T06:56:01.578Z,12.10
2022-08-07T07:00:14.421Z,12.40
2022-08-07T07:03:49.291Z,12.60
2022-08-07T07:08:00.238Z,12.80
2022-08-07T07:12:09.167Z,13.10
2022-08-07T07:15:39.839Z,13.30
2022-08-07T07:19:56.513Z,13.50
2022-08-07T07:24:09.092Z,13.80
2022-08-07T07:27:55.526Z,14.10
2022-08-07T07:31:44.667Z,14.40
2022-08-07T07:35:28.366Z,15.10
2022-08-07T07:39:15.413Z,16.00
2022-08-07T07:42:57.129Z,17.00
2022-08-07T07:46:54.673Z,18.00
2022-08-07T07:50:40.234Z,19.20
2022-08-07T07:54:22.665Z,20.40
2022-08-07T07:58:08.215Z,21.40
2022-08-07T08:02:02.903Z,22.40
2022-08-07T08:05:55.220Z,23.30
2022-08-07T08:09:52.486Z,24.20
2022-08-07T08:13:54.780Z,24.90
2022-08-07T08:17:57.269Z,25.70
2022-08-07T08:22:03.002Z,26.40
2022-08-07T08:26:06.996Z,27.20
2022-08-07T08:29:55.798Z,28.00
2022-08-07T08:33:37.846Z,28.50
2022-08-07T08:38:00.325Z,29.20
2022-08-07T08:41:31.501Z,29.80
2022-08-07T08:45:59.562Z,30.50
2022-08-07T08:49:57.184Z,31.20
2022-08-07T08:53:45.890Z,31.80
2022-08-07T08:57:48.073Z,32.40
2022-08-07T09:01:44.146Z,32.80
2022-08-07T09:05:38.037Z,32.90
2022-08-07T09:09:30.290Z,32.80
2022-08-07T09:13:36.820Z,33.20
2022-08-07T09:17:58.539Z,33.80
2022-08-07T09:21:58.159Z,33.70
2022-08-07T09:25:54.308Z,34.20
2022-08-07T09:30:04.471Z,34.90
2022-08-07T09:34:07.862Z,35.60
2022-08-07T09:38:03.673Z,36.30
2022-08-07T09:42:03.017Z,37.00
2022-08-07T09:47:24.152Z,37.60
2022-08-07T09:50:19.626Z,38.10
2022-08-07T09:54:02.884Z,38.60
2022-08-07T09:58:03.471Z,39.10
2022-08-07T10:02:00.362Z,39.60
2022-08-07T10:06:00.015Z,40.20
2022-08-07T10:10:02.445Z,40.40
2022-08-07T10:14:00.810Z,39.40
2022-08-07T10:18:01.135Z,38.50
2022-08-07T10:22:15.090Z,38.00
2022-08-07T10:25:58.970Z,37.10
2022-08-07T10:30:00.966Z,37.90
2022-08-07T10:34:14.287Z,37.80
2022-08-07T10:38:09.789Z,37.30
2022-08-07T10:42:31.282Z,37.20
2022-08-07T10:46:20.332Z,38.60
2022-08-07T10:50:06.200Z,39.80
2022-08-07T10:53:56.118Z,40.90
2022-08-07T10:57:44.404Z,42.00
2022-08-07T11:02:04.889Z,42.00
2022-08-07T11:06:05.083Z,42.30
2022-08-07T11:10:07.841Z,43.10
2022-08-07T11:14:45.667Z,43.50
2022-08-07T11:18:19.476Z,44.60
2022-08-07T11:22:01.634Z,46.00
2022-08-07T11:25:52.944Z,46.40
2022-08-07T11:29:47.440Z,46.90
2022-08-07T11:33:54.079Z,46.90
2022-08-07T11:38:08.818Z,46.80
2022-08-07T11:42:01.631Z,47.30
2022-08-07T11:45:53.852Z,48.80
2022-08-07T11:50:25.345Z,49.70
2022-08-07T11:53:43.356Z,50.00
2022-08-07T11:57:52.487Z,50.70
2022-08-07T12:01:59.963Z,51.20
2022-08-07T12:05:58.404Z,50.70
2022-08-07T12:09:53.529Z,49.60
2022-08-07T12:13:47.840Z,49.90
2022-08-07T12:17:33.797Z,50.60
2022-08-07T12:21:55.633Z,51.10
2022-08-07T12:26:21.875Z,50.70
2022-08-07T12:30:03.161Z,48.90
2022-08-07T12:33:56.700Z,47.90
2022-08-07T12:38:11.417Z,47.80
2022-08-07T12:41:51.457Z,47.80
2022-08-07T12:45:35.572Z,47.90
2022-08-07T12:49:25.401Z,48.30
2022-08-07T12:53:27.524Z,49.10
2022-08-07T12:57:10.295Z,49.80
2022-08-07T13:00:54.498Z,50.40
2022-08-07T13:05:02.331Z,49.80
2022-08-07T13:09:00.369Z,50.50
2022-08-07T13:12:56.522Z,50.70
2022-08-07T13:16:38.166Z,49.00
2022-08-07T13:20:30.444Z,46.70
2022-08-07T13:24:15.154Z,44.90
2022-08-07T13:28:11.480Z,45.30
2022-08-07T13:32:23.621Z,47.00
2022-08-07T13:36:25.779Z,48.80
2022-08-07T13:40:36.579Z,49.30
2022-08-07T13:44:25.795Z,49.50
2022-08-07T13:48:10.483Z,50.60
2022-08-07T13:52:05.483Z,51.60
2022-08-07T13:56:05.041Z,51.10
2022-08-07T13:59:53.057Z,51.20
2022-08-07T14:04:05.126Z,51.40
2022-08-07T14:08:00.417Z,50.50
2022-08-07T14:11:53.579Z,50.50
2022-08-07T14:15:42.893Z,51.10
2022-08-07T14:20:42.131Z,51.10
2022-08-07T14:24:00.130Z,50.90
2022-08-07T14:28:12.250Z,51.90
2022-08-07T14:31:43.423Z,53.10
2022-08-07T14:35:45.691Z,53.80
2022-08-07T14:40:15.804Z,53.10
2022-08-07T14:43:58.983Z,52.00
2022-08-07T14:47:35.715Z,51.30
2022-08-07T14:51:28.049Z,50.20
2022-08-07T14:55:32.828Z,49.40
2022-08-07T15:00:06.274Z,49.70
2022-08-07T15:03:22.463Z,49.70
2022-08-07T15:07:24.558Z,50.10
2022-08-07T15:11:53.637Z,51.00
2022-08-07T15:20:23.626Z,52.50
2022-08-07T15:25:13.103Z,52.10
2022-08-07T15:28:32.995Z,52.30
2022-08-07T15:31:57.978Z,52.40
2022-08-07T15:39:58.972Z,51.70
2022-08-07T15:43:53.276Z,51.60
2022-08-07T15:56:02.524Z,48.20
2022-08-07T15:59:47.948Z,48.60
2022-08-07T16:03:46.386Z,48.90
2022-08-07T16:08:31.865Z,48.80
2022-08-07T16:11:50.049Z,48.30
2022-08-07T16:15:54.824Z,47.90
2022-08-07T16:20:04.272Z,48.10
2022-08-07T16:24:09.122Z,47.70
2022-08-07T16:29:18.753Z,47.20
2022-08-07T16:32:33.036Z,47.40
2022-08-07T16:36:23.019Z,46.70
2022-08-07T16:40:33.259Z,46.90
2022-08-07T16:44:40.513Z,47.40
2022-08-07T16:49:10.507Z,47.90
2022-08-07T16:53:09.869Z,48.10
2022-08-07T16:57:17.187Z,47.70
2022-08-07T17:01:18.902Z,47.30
2022-08-07T17:06:02.075Z,46.70
2022-08-07T17:10:05.421Z,45.40
2022-08-07T17:13:40.395Z,45.20
2022-08-07T17:17:47.024Z,45.70
2022-08-07T17:21:50.501Z,46.30
2022-08-07T17:25:51.336Z,45.90
2022-08-07T17:30:14.247Z,45.80
2022-08-07T17:34:18.227Z,45.30
2022-08-07T17:38:13.641Z,45.10
2022-08-07T17:42:06.650Z,44.90
2022-08-07T17:46:09.024Z,43.90
2022-08-07T17:49:53.212Z,43.20
2022-08-07T17:54:00.690Z,42.60
2022-08-07T17:57:59.135Z,42.20
2022-08-07T18:01:48.394Z,41.70
2022-08-07T18:06:03.269Z,41.20
2022-08-07T18:10:05.103Z,40.50
2022-08-07T18:13:48.539Z,39.60
2022-08-07T18:18:45.627Z,38.70
2022-08-07T18:21:55.196Z,38.10
2022-08-07T18:25:42.568Z,37.60
2022-08-07T18:30:04.514Z,37.40
2022-08-07T18:33:38.862Z,36.80
2022-08-07T18:38:58.330Z,35.90
2022-08-07T18:41:58.104Z,34.90
2022-08-07T18:46:21.882Z,33.50
2022-08-07T18:50:33.678Z,32.30
2022-08-07T18:53:55.507Z,31.00
2022-08-07T18:57:59.462Z,30.00
2022-08-07T19:02:18.140Z,29.30
2022-08-07T19:06:04.193Z,28.70
2022-08-07T19:09:57.897Z,28.00
2022-08-07T19:13:49.960Z,27.50
2022-08-07T19:17:59.133Z,27.00
2022-08-07T19:21:44.922Z,26.60
2022-08-07T19:26:23.299Z,26.20
2022-08-07T19:31:06.451Z,26.00
2022-08-07T19:33:42.090Z,25.60
2022-08-07T19:37:24.737Z,25.30
2022-08-07T19:41:44.201Z,25.00
2022-08-07T19:46:04.763Z,24.70
2022-08-07T19:49:57.867Z,24.40
2022-08-07T19:54:29.579Z,24.20
2022-08-07T19:58:03.203Z,23.90
2022-08-07T20:01:57.161Z,23.60
2022-08-07T20:06:01.118Z,23.40
2022-08-07T20:10:36.938Z,23.20
2022-08-07T20:13:48.262Z,23.00
2022-08-07T20:17:32.822Z,22.80
2022-08-07T20:21:22.544Z,22.60
2022-08-07T20:25:12.875Z,22.40
2022-08-07T20:29:10.688Z,22.20
2022-08-07T20:32:59.765Z,22.10
2022-08-07T20:36:44.142Z,21.90
2022-08-07T20:40:41.213Z,21.80
2022-08-07T20:44:27.456Z,21.60
2022-08-07T20:48:10.073Z,21.40
2022-08-07T20:52:17.572Z,21.30
2022-08-07T20:56:03.446Z,21.00
2022-08-07T21:00:06.432Z,20.90
2022-08-07T21:04:18.748Z,20.70
2022-08-07T21:07:55.550Z,20.60
2022-08-07T21:11:50.271Z,20.40
2022-08-07T21:15:47.975Z,20.30
2022-08-07T21:19:51.798Z,20.20
2022-08-07T21:23:49.461Z,20.00
2022-08-07T21:27:53.500Z,19.80
2022-08-07T21:31:49.613Z,19.70
2022-08-07T21:36:05.047Z,19.50
2022-08-07T21:39:51.789Z,19.40
2022-08-07T21:43:56.634Z,19.20
2022-08-07T21:47:46.693Z,19.10
2022-08-07T21:51:33.777Z,18.90
2022-08-07T21:55:36.725Z,18.80
2022-08-07T21:59:22.654Z,18.60
2022-08-07T22:03:05.786Z,18.50
2022-08-07T22:07:01.887Z,18.30
2022-08-07T22:10:44.095Z,18.20
2022-08-07T22:14:36.143Z,18.10
2022-08-07T22:18:25.593Z,18.00
2022-08-07T22:22:20.767Z,17.80
2022-08-07T22:26:13.533Z,17.70
2022-08-07T22:30:03.906Z,17.60
2022-08-07T22:33:57.498Z,17.50
2022-08-07T22:38:04.665Z,17.30
2022-08-07T22:42:04.063Z,17.20
2022-08-07T22:46:04.281Z,17.00
2022-08-07T22:49:51.809Z,16.90
2022-08-07T22:54:05.453Z,16.80
2022-08-07T22:57:52.889Z,16.70
2022-08-07T23:01:52.886Z,16.50
2022-08-07T23:06:14.864Z,16.40
2022-08-07T23:10:37.464Z,16.30
2022-08-07T23:14:31.247Z,16.10
2022-08-07T23:18:16.118Z,16.00
2022-08-07T23:22:03.238Z,15.80
2022-08-07T23:25:51.842Z,15.70
2022-08-07T23:30:36.021Z,15.50
2022-08-07T23:34:36.541Z,15.40
2022-08-07T23:38:19.068Z,15.30
2022-08-07T23:42:21.766Z,15.10
2022-08-07T23:46:23.807Z,15.00
2022-08-07T23:50:05.615Z,14.90
2022-08-07T23:53:59.104Z,14.80
2022-08-07T23:57:58.833Z,14.70
